Mogoca, Russia
Current Conditions -  °F | °C
As of 10:00 PM on Thursday 23 Oct 2014 (Local Time) from UIAA Reporting Station
Broken Clouds Broken Clouds  
Wind Chill: 28°   Ceiling: 10000
Heat Index: 32°   Visibility: 6mi
Dew Point: 21°   Wind: 4mph
Humidity: 64%   Direction: NA
Pressure: 29.8"   Gusts: NA
Location:  53.75°N, 119.73°E
Report Text: UIAA 231300Z VRB02MPS 9999 BKN100 00/M06 Q1009 NOSIG RMK QFE69929CLRD70
Loading
Personal Weather Stations






























Interactive Weather Map
Tropical Storm Tracking
New forecast layout! Learn more

10-Day Weather Forecast

Advertisements
Track Severe Weather on mobile